KYKM/YKM METAR and TAF weather

Enter ICAO airport designator
Station Type Date Time Source
KYKM METAR 2022/01/26 08:53 UTC NOAA

KYKM 260853Z AUTO 00000KT 10SM OVC009 M03/M05 A3033 RMK AO2 SLP284 T10331050 56008


Station Type Date Time Source
KYKM Decoded METAR 2022/01/26 08:53 UTC NOAA

YAKIMA AIR TERMINAL, WA, United States (KYKM) 46-34N 120-32W 324M
Jan 26, 2022 - 03:53 AM EST / 2022.01.26 0853 UTC
Wind: Calm:0
Visibility: 10 mile(s):0
Sky conditions: overcast
Temperature: 26.1 F (-3.3 C)
Dew Point: 23.0 F (-5.0 C)
Relative Humidity: 87%
Pressure (altimeter): 30.33 in. Hg (1027 hPa)
Pressure tendency: 0.02 inches (0.8 hPa) lower than three hours ago
ob: KYKM 260853Z AUTO 00000KT 10SM OVC009 M03/M05 A3033 RMK AO2 SLP284 T10331050 56008
cycle: 9

Station Type Date Time Source
KYKM TAF 2022/01/26 09:03 UTC NOAA

TAF
AMD KYKM 260901Z 2609/2706 29003KT P6SM OVC008
FM261300 31002KT 6SM BR OVC007
FM262000 VRB03KT 6SM BR OVC015

Example: see airport list